sensor_id;sensor_type;location;lat;lon;timestamp;temperature;humidity
22098;DHT22;11215;51.938;8.464;2022-08-19T00:00:26;24.30;57.40
22098;DHT22;11215;51.938;8.464;2022-08-19T00:02:52;24.30;58.20
22098;DHT22;11215;51.938;8.464;2022-08-19T00:05:19;24.30;57.60
22098;DHT22;11215;51.938;8.464;2022-08-19T00:07:45;24.20;57.70
22098;DHT22;11215;51.938;8.464;2022-08-19T00:10:13;24.20;57.70
22098;DHT22;11215;51.938;8.464;2022-08-19T00:12:40;24.20;57.90
22098;DHT22;11215;51.938;8.464;2022-08-19T00:15:08;24.10;57.90
22098;DHT22;11215;51.938;8.464;2022-08-19T00:17:39;24.10;57.90
22098;DHT22;11215;51.938;8.464;2022-08-19T00:20:05;24.10;58.00
22098;DHT22;11215;51.938;8.464;2022-08-19T00:22:32;24.10;58.10
22098;DHT22;11215;51.938;8.464;2022-08-19T00:24:57;24.00;58.70
22098;DHT22;11215;51.938;8.464;2022-08-19T00:27:23;24.00;58.10
22098;DHT22;11215;51.938;8.464;2022-08-19T00:29:49;24.00;58.10
22098;DHT22;11215;51.938;8.464;2022-08-19T00:32:16;24.00;58.20
22098;DHT22;11215;51.938;8.464;2022-08-19T00:34:42;24.00;58.20
22098;DHT22;11215;51.938;8.464;2022-08-19T00:37:08;23.90;58.20
22098;DHT22;11215;51.938;8.464;2022-08-19T00:39:34;23.90;58.20
22098;DHT22;11215;51.938;8.464;2022-08-19T00:42:00;23.90;58.30
22098;DHT22;11215;51.938;8.464;2022-08-19T00:44:28;23.90;58.30
22098;DHT22;11215;51.938;8.464;2022-08-19T00:46:55;23.90;58.50
22098;DHT22;11215;51.938;8.464;2022-08-19T00:49:31;23.90;58.50
22098;DHT22;11215;51.938;8.464;2022-08-19T00:52:03;23.90;59.40
22098;DHT22;11215;51.938;8.464;2022-08-19T00:54:30;23.90;58.50
22098;DHT22;11215;51.938;8.464;2022-08-19T00:56:57;23.90;58.40
22098;DHT22;11215;51.938;8.464;2022-08-19T00:59:23;23.90;58.50
22098;DHT22;11215;51.938;8.464;2022-08-19T01:01:50;23.80;58.40
22098;DHT22;11215;51.938;8.464;2022-08-19T01:04:16;23.80;58.30
22098;DHT22;11215;51.938;8.464;2022-08-19T01:06:42;23.80;58.30
22098;DHT22;11215;51.938;8.464;2022-08-19T01:09:08;23.80;58.40
22098;DHT22;11215;51.938;8.464;2022-08-19T01:11:37;23.80;58.60
22098;DHT22;11215;51.938;8.464;2022-08-19T01:14:05;23.70;58.60
22098;DHT22;11215;51.938;8.464;2022-08-19T01:16:32;23.70;58.60
22098;DHT22;11215;51.938;8.464;2022-08-19T01:18:58;23.60;58.60
22098;DHT22;11215;51.938;8.464;2022-08-19T01:21:39;23.60;58.60
22098;DHT22;11215;51.938;8.464;2022-08-19T01:24:06;23.60;59.20
22098;DHT22;11215;51.938;8.464;2022-08-19T01:26:39;23.50;58.60
22098;DHT22;11215;51.938;8.464;2022-08-19T01:29:07;23.50;59.00
22098;DHT22;11215;51.938;8.464;2022-08-19T01:31:34;23.50;58.90
22098;DHT22;11215;51.938;8.464;2022-08-19T01:34:01;23.40;58.80
22098;DHT22;11215;51.938;8.464;2022-08-19T01:36:40;23.40;58.80
22098;DHT22;11215;51.938;8.464;2022-08-19T01:39:10;23.30;59.20
22098;DHT22;11215;51.938;8.464;2022-08-19T01:41:36;23.30;59.00
22098;DHT22;11215;51.938;8.464;2022-08-19T01:44:02;23.30;59.00
22098;DHT22;11215;51.938;8.464;2022-08-19T01:46:30;23.30;59.20
22098;DHT22;11215;51.938;8.464;2022-08-19T01:48:56;23.30;59.30
22098;DHT22;11215;51.938;8.464;2022-08-19T01:51:22;23.20;59.30
22098;DHT22;11215;51.938;8.464;2022-08-19T01:53:49;23.20;59.30
22098;DHT22;11215;51.938;8.464;2022-08-19T01:56:15;23.20;59.30
22098;DHT22;11215;51.938;8.464;2022-08-19T01:59:06;23.10;59.10
22098;DHT22;11215;51.938;8.464;2022-08-19T02:01:33;23.10;59.70
22098;DHT22;11215;51.938;8.464;2022-08-19T02:04:00;23.10;59.20
22098;DHT22;11215;51.938;8.464;2022-08-19T02:06:29;23.10;59.30
22098;DHT22;11215;51.938;8.464;2022-08-19T02:08:55;23.00;59.30
22098;DHT22;11215;51.938;8.464;2022-08-19T02:11:29;23.00;59.40
22098;DHT22;11215;51.938;8.464;2022-08-19T02:14:00;23.00;59.60
22098;DHT22;11215;51.938;8.464;2022-08-19T02:16:28;23.00;59.50
22098;DHT22;11215;51.938;8.464;2022-08-19T02:18:53;23.00;59.50
22098;DHT22;11215;51.938;8.464;2022-08-19T02:21:21;22.90;59.50
22098;DHT22;11215;51.938;8.464;2022-08-19T02:23:47;22.90;59.70
22098;DHT22;11215;51.938;8.464;2022-08-19T02:26:13;22.90;59.70
22098;DHT22;11215;51.938;8.464;2022-08-19T02:28:40;22.90;59.70
22098;DHT22;11215;51.938;8.464;2022-08-19T02:31:15;22.90;59.80
22098;DHT22;11215;51.938;8.464;2022-08-19T02:33:41;22.80;60.00
22098;DHT22;11215;51.938;8.464;2022-08-19T02:36:07;22.80;59.80
22098;DHT22;11215;51.938;8.464;2022-08-19T02:38:33;22.80;59.80
22098;DHT22;11215;51.938;8.464;2022-08-19T02:41:04;22.80;60.60
22098;DHT22;11215;51.938;8.464;2022-08-19T02:43:32;22.80;60.00
22098;DHT22;11215;51.938;8.464;2022-08-19T02:45:57;22.80;59.90
22098;DHT22;11215;51.938;8.464;2022-08-19T02:48:24;22.80;59.90
22098;DHT22;11215;51.938;8.464;2022-08-19T02:50:52;22.70;60.00
22098;DHT22;11215;51.938;8.464;2022-08-19T02:53:21;22.70;60.00
22098;DHT22;11215;51.938;8.464;2022-08-19T02:55:48;22.70;60.00
22098;DHT22;11215;51.938;8.464;2022-08-19T02:58:15;22.70;60.10
22098;DHT22;11215;51.938;8.464;2022-08-19T03:00:52;22.70;60.20
22098;DHT22;11215;51.938;8.464;2022-08-19T03:03:19;22.70;60.80
22098;DHT22;11215;51.938;8.464;2022-08-19T03:05:45;22.70;60.20
22098;DHT22;11215;51.938;8.464;2022-08-19T03:08:12;22.60;60.20
22098;DHT22;11215;51.938;8.464;2022-08-19T03:10:46;22.60;60.30
22098;DHT22;11215;51.938;8.464;2022-08-19T03:13:14;22.60;61.60
22098;DHT22;11215;51.938;8.464;2022-08-19T03:15:46;22.60;60.40
22098;DHT22;11215;51.938;8.464;2022-08-19T03:18:13;22.60;60.60
22098;DHT22;11215;51.938;8.464;2022-08-19T03:20:48;22.50;60.30
22098;DHT22;11215;51.938;8.464;2022-08-19T03:23:14;22.50;60.70
22098;DHT22;11215;51.938;8.464;2022-08-19T03:25:43;22.50;60.50
22098;DHT22;11215;51.938;8.464;2022-08-19T03:28:13;22.50;60.60
22098;DHT22;11215;51.938;8.464;2022-08-19T03:30:41;22.40;60.60
22098;DHT22;11215;51.938;8.464;2022-08-19T03:33:09;22.40;60.50
22098;DHT22;11215;51.938;8.464;2022-08-19T03:35:37;22.40;60.60
22098;DHT22;11215;51.938;8.464;2022-08-19T03:38:04;22.40;60.60
22098;DHT22;11215;51.938;8.464;2022-08-19T03:40:31;22.30;60.70
22098;DHT22;11215;51.938;8.464;2022-08-19T03:42:57;22.30;60.80
22098;DHT22;11215;51.938;8.464;2022-08-19T03:45:23;22.30;60.90
22098;DHT22;11215;51.938;8.464;2022-08-19T03:47:49;22.30;61.00
22098;DHT22;11215;51.938;8.464;2022-08-19T03:50:16;22.20;60.90
22098;DHT22;11215;51.938;8.464;2022-08-19T03:52:42;22.20;61.00
22098;DHT22;11215;51.938;8.464;2022-08-19T03:55:08;22.20;60.90
22098;DHT22;11215;51.938;8.464;2022-08-19T03:57:35;22.20;60.90
22098;DHT22;11215;51.938;8.464;2022-08-19T04:00:01;22.10;60.70
22098;DHT22;11215;51.938;8.464;2022-08-19T04:02:26;22.10;60.80
22098;DHT22;11215;51.938;8.464;2022-08-19T04:04:53;22.10;60.80
22098;DHT22;11215;51.938;8.464;2022-08-19T04:07:20;22.00;60.90
22098;DHT22;11215;51.938;8.464;2022-08-19T04:09:47;22.00;60.80
22098;DHT22;11215;51.938;8.464;2022-08-19T04:12:13;22.00;61.00
22098;DHT22;11215;51.938;8.464;2022-08-19T04:14:39;22.00;61.10
22098;DHT22;11215;51.938;8.464;2022-08-19T04:17:05;21.90;61.40
22098;DHT22;11215;51.938;8.464;2022-08-19T04:19:32;21.90;61.60
22098;DHT22;11215;51.938;8.464;2022-08-19T04:21:58;21.90;61.80
22098;DHT22;11215;51.938;8.464;2022-08-19T04:24:24;21.90;61.70
22098;DHT22;11215;51.938;8.464;2022-08-19T04:26:50;21.90;61.70
22098;DHT22;11215;51.938;8.464;2022-08-19T04:29:19;21.80;61.80
22098;DHT22;11215;51.938;8.464;2022-08-19T04:31:47;21.80;61.90
22098;DHT22;11215;51.938;8.464;2022-08-19T04:34:16;21.80;61.90
22098;DHT22;11215;51.938;8.464;2022-08-19T04:36:43;21.80;61.90
22098;DHT22;11215;51.938;8.464;2022-08-19T04:39:18;21.80;61.90
22098;DHT22;11215;51.938;8.464;2022-08-19T04:41:44;21.80;62.40
22098;DHT22;11215;51.938;8.464;2022-08-19T04:44:30;21.80;62.10
22098;DHT22;11215;51.938;8.464;2022-08-19T04:46:56;21.70;62.30
22098;DHT22;11215;51.938;8.464;2022-08-19T04:49:23;21.80;62.30
22098;DHT22;11215;51.938;8.464;2022-08-19T04:51:51;21.80;62.40
22098;DHT22;11215;51.938;8.464;2022-08-19T04:54:20;21.70;62.40
22098;DHT22;11215;51.938;8.464;2022-08-19T04:56:48;21.80;62.50
22098;DHT22;11215;51.938;8.464;2022-08-19T04:59:15;21.70;62.50
22098;DHT22;11215;51.938;8.464;2022-08-19T05:01:42;21.70;62.60
22098;DHT22;11215;51.938;8.464;2022-08-19T05:04:08;21.70;62.80
22098;DHT22;11215;51.938;8.464;2022-08-19T05:06:35;21.70;62.70
22098;DHT22;11215;51.938;8.464;2022-08-19T05:09:04;21.70;62.80
22098;DHT22;11215;51.938;8.464;2022-08-19T05:11:33;21.70;62.90
22098;DHT22;11215;51.938;8.464;2022-08-19T05:13:58;21.70;62.90
22098;DHT22;11215;51.938;8.464;2022-08-19T05:16:25;21.70;62.60
22098;DHT22;11215;51.938;8.464;2022-08-19T05:18:52;21.70;62.60
22098;DHT22;11215;51.938;8.464;2022-08-19T05:21:38;21.70;62.60
22098;DHT22;11215;51.938;8.464;2022-08-19T05:24:23;21.70;62.60
22098;DHT22;11215;51.938;8.464;2022-08-19T05:26:51;21.80;62.70
22098;DHT22;11215;51.938;8.464;2022-08-19T05:29:19;21.70;62.80
22098;DHT22;11215;51.938;8.464;2022-08-19T05:31:46;21.80;63.10
22098;DHT22;11215;51.938;8.464;2022-08-19T05:34:15;21.80;63.20
22098;DHT22;11215;51.938;8.464;2022-08-19T05:36:43;21.80;63.20
22098;DHT22;11215;51.938;8.464;2022-08-19T05:39:12;21.80;63.30
22098;DHT22;11215;51.938;8.464;2022-08-19T05:41:47;21.80;63.30
22098;DHT22;11215;51.938;8.464;2022-08-19T05:44:13;21.80;63.50
22098;DHT22;11215;51.938;8.464;2022-08-19T05:46:39;21.80;63.20
22098;DHT22;11215;51.938;8.464;2022-08-19T05:49:06;21.80;63.20
22098;DHT22;11215;51.938;8.464;2022-08-19T05:51:32;21.80;63.30
22098;DHT22;11215;51.938;8.464;2022-08-19T05:54:00;21.80;63.30
22098;DHT22;11215;51.938;8.464;2022-08-19T05:56:26;21.90;63.40
22098;DHT22;11215;51.938;8.464;2022-08-19T05:58:53;21.80;63.40
22098;DHT22;11215;51.938;8.464;2022-08-19T06:01:20;21.90;63.50
22098;DHT22;11215;51.938;8.464;2022-08-19T06:03:46;21.80;63.50
22098;DHT22;11215;51.938;8.464;2022-08-19T06:06:14;21.90;63.60
22098;DHT22;11215;51.938;8.464;2022-08-19T06:08:41;21.80;63.60
22098;DHT22;11215;51.938;8.464;2022-08-19T06:11:21;21.80;63.60
22098;DHT22;11215;51.938;8.464;2022-08-19T06:13:50;21.80;64.20
22098;DHT22;11215;51.938;8.464;2022-08-19T06:16:18;21.80;63.80
22098;DHT22;11215;51.938;8.464;2022-08-19T06:18:54;21.80;63.80
22098;DHT22;11215;51.938;8.464;2022-08-19T06:21:24;21.90;64.20
22098;DHT22;11215;51.938;8.464;2022-08-19T06:23:50;21.90;64.70
22098;DHT22;11215;51.938;8.464;2022-08-19T06:26:18;21.90;63.80
22098;DHT22;11215;51.938;8.464;2022-08-19T06:28:45;21.90;64.00
22098;DHT22;11215;51.938;8.464;2022-08-19T06:31:16;21.90;64.00
22098;DHT22;11215;51.938;8.464;2022-08-19T06:33:46;21.90;64.10
22098;DHT22;11215;51.938;8.464;2022-08-19T06:36:23;22.00;64.10
22098;DHT22;11215;51.938;8.464;2022-08-19T06:38:54;22.00;64.60
22098;DHT22;11215;51.938;8.464;2022-08-19T06:41:20;22.00;64.30
22098;DHT22;11215;51.938;8.464;2022-08-19T06:43:45;22.00;64.30
22098;DHT22;11215;51.938;8.464;2022-08-19T06:46:16;22.10;64.50
22098;DHT22;11215;51.938;8.464;2022-08-19T06:48:43;22.20;64.90
22098;DHT22;11215;51.938;8.464;2022-08-19T06:51:09;22.20;64.80
22098;DHT22;11215;51.938;8.464;2022-08-19T06:53:35;22.30;65.00
22098;DHT22;11215;51.938;8.464;2022-08-19T06:56:00;22.40;65.00
22098;DHT22;11215;51.938;8.464;2022-08-19T06:58:31;22.50;64.80
22098;DHT22;11215;51.938;8.464;2022-08-19T07:01:01;22.50;64.60
22098;DHT22;11215;51.938;8.464;2022-08-19T07:03:30;22.60;64.40
22098;DHT22;11215;51.938;8.464;2022-08-19T07:05:57;22.70;64.20
22098;DHT22;11215;51.938;8.464;2022-08-19T07:08:22;22.70;64.00
22098;DHT22;11215;51.938;8.464;2022-08-19T07:10:49;22.80;64.00
22098;DHT22;11215;51.938;8.464;2022-08-19T07:13:15;22.80;63.90
22098;DHT22;11215;51.938;8.464;2022-08-19T07:15:40;22.80;63.80
22098;DHT22;11215;51.938;8.464;2022-08-19T07:18:06;22.90;63.70
22098;DHT22;11215;51.938;8.464;2022-08-19T07:20:34;22.90;63.60
22098;DHT22;11215;51.938;8.464;2022-08-19T07:23:02;23.00;63.70
22098;DHT22;11215;51.938;8.464;2022-08-19T07:25:35;23.00;63.50
22098;DHT22;11215;51.938;8.464;2022-08-19T07:28:01;23.10;63.60
22098;DHT22;11215;51.938;8.464;2022-08-19T07:30:26;23.10;63.50
22098;DHT22;11215;51.938;8.464;2022-08-19T07:32:52;23.10;63.60
22098;DHT22;11215;51.938;8.464;2022-08-19T07:35:18;23.20;63.40
22098;DHT22;11215;51.938;8.464;2022-08-19T07:37:50;23.20;63.40
22098;DHT22;11215;51.938;8.464;2022-08-19T07:40:15;23.30;63.10
22098;DHT22;11215;51.938;8.464;2022-08-19T07:42:49;23.30;62.50
22098;DHT22;11215;51.938;8.464;2022-08-19T07:45:17;23.30;62.60
22098;DHT22;11215;51.938;8.464;2022-08-19T07:47:43;23.40;62.90
22098;DHT22;11215;51.938;8.464;2022-08-19T07:50:09;23.50;62.70
22098;DHT22;11215;51.938;8.464;2022-08-19T07:52:37;23.50;62.50
22098;DHT22;11215;51.938;8.464;2022-08-19T07:55:06;23.50;62.50
22098;DHT22;11215;51.938;8.464;2022-08-19T07:57:32;23.60;62.60
22098;DHT22;11215;51.938;8.464;2022-08-19T07:59:58;23.60;62.50
22098;DHT22;11215;51.938;8.464;2022-08-19T08:02:23;23.70;62.60
22098;DHT22;11215;51.938;8.464;2022-08-19T08:04:50;23.70;62.60
22098;DHT22;11215;51.938;8.464;2022-08-19T08:07:34;23.80;62.60
22098;DHT22;11215;51.938;8.464;2022-08-19T08:10:18;23.80;62.60
22098;DHT22;11215;51.938;8.464;2022-08-19T08:12:44;23.90;62.50
22098;DHT22;11215;51.938;8.464;2022-08-19T08:15:15;23.90;62.40
22098;DHT22;11215;51.938;8.464;2022-08-19T08:17:42;24.00;62.10
22098;DHT22;11215;51.938;8.464;2022-08-19T08:20:09;24.00;62.10
22098;DHT22;11215;51.938;8.464;2022-08-19T08:22:35;24.10;62.10
22098;DHT22;11215;51.938;8.464;2022-08-19T08:25:24;24.10;62.00
22098;DHT22;11215;51.938;8.464;2022-08-19T08:27:50;24.20;62.00
22098;DHT22;11215;51.938;8.464;2022-08-19T08:30:22;24.30;61.90
22098;DHT22;11215;51.938;8.464;2022-08-19T08:32:49;24.30;61.80
22098;DHT22;11215;51.938;8.464;2022-08-19T08:35:19;24.40;61.70
22098;DHT22;11215;51.938;8.464;2022-08-19T08:37:46;24.40;61.60
22098;DHT22;11215;51.938;8.464;2022-08-19T08:40:28;24.50;61.60
22098;DHT22;11215;51.938;8.464;2022-08-19T08:43:03;24.60;61.30
22098;DHT22;11215;51.938;8.464;2022-08-19T08:45:33;24.60;61.20
22098;DHT22;11215;51.938;8.464;2022-08-19T08:48:03;24.70;61.30
22098;DHT22;11215;51.938;8.464;2022-08-19T08:50:36;24.80;60.90
22098;DHT22;11215;51.938;8.464;2022-08-19T08:53:04;24.80;60.70
22098;DHT22;11215;51.938;8.464;2022-08-19T08:55:31;24.80;60.50
22098;DHT22;11215;51.938;8.464;2022-08-19T08:58:05;24.90;60.60
22098;DHT22;11215;51.938;8.464;2022-08-19T09:00:37;25.00;60.10
22098;DHT22;11215;51.938;8.464;2022-08-19T09:03:09;25.00;60.10
22098;DHT22;11215;51.938;8.464;2022-08-19T09:05:55;25.00;60.00
22098;DHT22;11215;51.938;8.464;2022-08-19T09:08:48;25.10;60.20
22098;DHT22;11215;51.938;8.464;2022-08-19T09:11:24;25.10;59.90
22098;DHT22;11215;51.938;8.464;2022-08-19T09:17:07;25.30;59.10
22098;DHT22;11215;51.938;8.464;2022-08-19T09:19:56;25.40;59.60
22098;DHT22;11215;51.938;8.464;2022-08-19T09:22:20;25.40;59.30
22098;DHT22;11215;51.938;8.464;2022-08-19T09:24:50;25.50;59.70
22098;DHT22;11215;51.938;8.464;2022-08-19T09:27:18;25.50;58.80
22098;DHT22;11215;51.938;8.464;2022-08-19T09:29:44;25.60;58.70
22098;DHT22;11215;51.938;8.464;2022-08-19T09:32:09;25.70;58.60
22098;DHT22;11215;51.938;8.464;2022-08-19T09:34:35;25.70;58.40
22098;DHT22;11215;51.938;8.464;2022-08-19T09:37:01;25.80;58.30
22098;DHT22;11215;51.938;8.464;2022-08-19T09:39:28;25.90;58.10
22098;DHT22;11215;51.938;8.464;2022-08-19T09:41:56;26.00;57.90
22098;DHT22;11215;51.938;8.464;2022-08-19T09:44:21;26.00;57.80
22098;DHT22;11215;51.938;8.464;2022-08-19T09:46:47;26.00;57.50
22098;DHT22;11215;51.938;8.464;2022-08-19T09:49:13;26.10;57.20
22098;DHT22;11215;51.938;8.464;2022-08-19T09:51:39;26.20;56.90
22098;DHT22;11215;51.938;8.464;2022-08-19T09:54:05;26.20;56.70
22098;DHT22;11215;51.938;8.464;2022-08-19T09:56:31;26.30;56.70
22098;DHT22;11215;51.938;8.464;2022-08-19T09:58:58;26.30;56.90
22098;DHT22;11215;51.938;8.464;2022-08-19T10:01:26;26.40;56.60
22098;DHT22;11215;51.938;8.464;2022-08-19T10:03:57;26.40;56.40
22098;DHT22;11215;51.938;8.464;2022-08-19T10:06:25;26.40;56.20
22098;DHT22;11215;51.938;8.464;2022-08-19T10:08:52;26.50;56.10
22098;DHT22;11215;51.938;8.464;2022-08-19T10:11:19;26.50;55.90
22098;DHT22;11215;51.938;8.464;2022-08-19T10:13:46;26.50;55.50
22098;DHT22;11215;51.938;8.464;2022-08-19T10:16:18;26.60;55.30
22098;DHT22;11215;51.938;8.464;2022-08-19T10:18:46;26.60;54.00
22098;DHT22;11215;51.938;8.464;2022-08-19T10:21:15;26.60;53.90
22098;DHT22;11215;51.938;8.464;2022-08-19T10:23:43;26.70;53.20
22098;DHT22;11215;51.938;8.464;2022-08-19T10:26:15;26.70;52.80
22098;DHT22;11215;51.938;8.464;2022-08-19T10:28:41;26.70;53.00
22098;DHT22;11215;51.938;8.464;2022-08-19T10:31:09;26.80;53.10
22098;DHT22;11215;51.938;8.464;2022-08-19T10:33:36;26.80;52.70
22098;DHT22;11215;51.938;8.464;2022-08-19T10:36:08;26.90;52.60
22098;DHT22;11215;51.938;8.464;2022-08-19T10:38:35;27.00;52.90
22098;DHT22;11215;51.938;8.464;2022-08-19T10:41:18;27.00;53.50
22098;DHT22;11215;51.938;8.464;2022-08-19T10:43:45;27.10;53.00
22098;DHT22;11215;51.938;8.464;2022-08-19T10:46:14;27.20;52.60
22098;DHT22;11215;51.938;8.464;2022-08-19T10:48:41;27.30;52.10
22098;DHT22;11215;51.938;8.464;2022-08-19T10:51:07;27.30;51.60
22098;DHT22;11215;51.938;8.464;2022-08-19T10:53:51;27.40;51.60
22098;DHT22;11215;51.938;8.464;2022-08-19T10:56:18;27.50;52.60
22098;DHT22;11215;51.938;8.464;2022-08-19T10:59:03;27.50;51.80
22098;DHT22;11215;51.938;8.464;2022-08-19T11:01:30;27.60;51.70
22098;DHT22;11215;51.938;8.464;2022-08-19T11:03:59;27.60;51.20
22098;DHT22;11215;51.938;8.464;2022-08-19T11:06:25;27.70;50.60
22098;DHT22;11215;51.938;8.464;2022-08-19T11:08:51;27.80;50.60
22098;DHT22;11215;51.938;8.464;2022-08-19T11:11:17;27.90;50.60
22098;DHT22;11215;51.938;8.464;2022-08-19T11:13:43;27.90;50.30
22098;DHT22;11215;51.938;8.464;2022-08-19T11:16:20;28.00;49.90
22098;DHT22;11215;51.938;8.464;2022-08-19T11:18:52;28.00;48.10
22098;DHT22;11215;51.938;8.464;2022-08-19T11:21:22;28.20;48.70
22098;DHT22;11215;51.938;8.464;2022-08-19T11:23:51;28.20;48.30
22098;DHT22;11215;51.938;8.464;2022-08-19T11:26:18;28.20;48.30
22098;DHT22;11215;51.938;8.464;2022-08-19T11:28:45;28.30;48.80
22098;DHT22;11215;51.938;8.464;2022-08-19T11:31:17;28.30;48.80
22098;DHT22;11215;51.938;8.464;2022-08-19T11:33:43;28.40;47.80
22098;DHT22;11215;51.938;8.464;2022-08-19T11:36:09;28.50;48.70
22098;DHT22;11215;51.938;8.464;2022-08-19T11:38:36;28.60;48.60
22098;DHT22;11215;51.938;8.464;2022-08-19T11:41:04;28.60;48.50
22098;DHT22;11215;51.938;8.464;2022-08-19T11:43:32;28.70;48.30
22098;DHT22;11215;51.938;8.464;2022-08-19T11:45:58;28.80;48.00
22098;DHT22;11215;51.938;8.464;2022-08-19T11:48:24;28.90;47.80
22098;DHT22;11215;51.938;8.464;2022-08-19T11:50:52;29.00;47.60
22098;DHT22;11215;51.938;8.464;2022-08-19T11:53:18;29.00;47.10
22098;DHT22;11215;51.938;8.464;2022-08-19T11:55:46;29.10;47.20
22098;DHT22;11215;51.938;8.464;2022-08-19T11:58:12;29.10;47.10
22098;DHT22;11215;51.938;8.464;2022-08-19T12:00:39;29.20;47.00
22098;DHT22;11215;51.938;8.464;2022-08-19T12:03:05;29.20;46.70
22098;DHT22;11215;51.938;8.464;2022-08-19T12:05:31;29.20;46.60
22098;DHT22;11215;51.938;8.464;2022-08-19T12:07:57;29.30;46.60
22098;DHT22;11215;51.938;8.464;2022-08-19T12:10:23;29.30;46.60
22098;DHT22;11215;51.938;8.464;2022-08-19T12:12:49;29.40;46.50
22098;DHT22;11215;51.938;8.464;2022-08-19T12:15:15;29.40;46.50
22098;DHT22;11215;51.938;8.464;2022-08-19T12:17:41;29.50;46.60
22098;DHT22;11215;51.938;8.464;2022-08-19T12:20:09;29.50;46.50
22098;DHT22;11215;51.938;8.464;2022-08-19T12:22:36;29.50;46.40
22098;DHT22;11215;51.938;8.464;2022-08-19T12:25:03;29.60;46.30
22098;DHT22;11215;51.938;8.464;2022-08-19T12:27:30;29.60;45.60
22098;DHT22;11215;51.938;8.464;2022-08-19T12:29:56;29.70;45.50
22098;DHT22;11215;51.938;8.464;2022-08-19T12:32:22;29.70;45.50
22098;DHT22;11215;51.938;8.464;2022-08-19T12:34:50;29.80;45.10
22098;DHT22;11215;51.938;8.464;2022-08-19T12:37:15;29.80;45.10
22098;DHT22;11215;51.938;8.464;2022-08-19T12:39:42;29.90;45.00
22098;DHT22;11215;51.938;8.464;2022-08-19T12:42:10;29.90;44.90
22098;DHT22;11215;51.938;8.464;2022-08-19T12:44:37;29.90;44.80
22098;DHT22;11215;51.938;8.464;2022-08-19T12:47:05;30.00;44.40
22098;DHT22;11215;51.938;8.464;2022-08-19T12:49:33;30.00;44.60
22098;DHT22;11215;51.938;8.464;2022-08-19T12:52:00;30.00;44.60
22098;DHT22;11215;51.938;8.464;2022-08-19T12:54:27;30.00;44.50
22098;DHT22;11215;51.938;8.464;2022-08-19T12:56:52;30.10;44.60
22098;DHT22;11215;51.938;8.464;2022-08-19T12:59:18;30.10;44.70
22098;DHT22;11215;51.938;8.464;2022-08-19T13:01:44;30.20;44.30
22098;DHT22;11215;51.938;8.464;2022-08-19T13:04:10;30.30;44.60
22098;DHT22;11215;51.938;8.464;2022-08-19T13:06:36;30.30;44.30
22098;DHT22;11215;51.938;8.464;2022-08-19T13:09:03;30.30;44.30
22098;DHT22;11215;51.938;8.464;2022-08-19T13:11:29;30.40;44.10
22098;DHT22;11215;51.938;8.464;2022-08-19T13:13:58;30.40;43.60
22098;DHT22;11215;51.938;8.464;2022-08-19T13:16:24;30.40;43.60
22098;DHT22;11215;51.938;8.464;2022-08-19T13:18:50;30.40;43.40
22098;DHT22;11215;51.938;8.464;2022-08-19T13:21:18;30.40;43.30
22098;DHT22;11215;51.938;8.464;2022-08-19T13:23:45;30.40;43.20
22098;DHT22;11215;51.938;8.464;2022-08-19T13:26:12;30.40;43.20
22098;DHT22;11215;51.938;8.464;2022-08-19T13:28:39;30.30;43.00
22098;DHT22;11215;51.938;8.464;2022-08-19T13:31:25;30.30;43.00
22098;DHT22;11215;51.938;8.464;2022-08-19T13:34:10;30.30;43.00
22098;DHT22;11215;51.938;8.464;2022-08-19T13:36:36;30.30;43.40
22098;DHT22;11215;51.938;8.464;2022-08-19T13:39:03;30.30;43.30
22098;DHT22;11215;51.938;8.464;2022-08-19T13:41:29;30.30;43.40
22098;DHT22;11215;51.938;8.464;2022-08-19T13:43:55;30.30;43.20
22098;DHT22;11215;51.938;8.464;2022-08-19T13:46:21;30.40;43.50
22098;DHT22;11215;51.938;8.464;2022-08-19T13:48:47;30.40;43.40
22098;DHT22;11215;51.938;8.464;2022-08-19T13:51:16;30.50;43.20
22098;DHT22;11215;51.938;8.464;2022-08-19T13:53:43;30.50;43.10
22098;DHT22;11215;51.938;8.464;2022-08-19T13:56:13;30.60;43.00
22098;DHT22;11215;51.938;8.464;2022-08-19T13:58:39;30.70;42.90
22098;DHT22;11215;51.938;8.464;2022-08-19T14:01:06;30.70;42.80
22098;DHT22;11215;51.938;8.464;2022-08-19T14:03:33;30.80;42.70
22098;DHT22;11215;51.938;8.464;2022-08-19T14:05:58;30.80;42.40
22098;DHT22;11215;51.938;8.464;2022-08-19T14:08:31;30.80;42.40
22098;DHT22;11215;51.938;8.464;2022-08-19T14:11:16;30.90;41.60
22098;DHT22;11215;51.938;8.464;2022-08-19T14:13:44;31.00;41.40
22098;DHT22;11215;51.938;8.464;2022-08-19T14:16:32;31.00;41.50
22098;DHT22;11215;51.938;8.464;2022-08-19T14:19:00;31.00;40.90
22098;DHT22;11215;51.938;8.464;2022-08-19T14:21:31;31.00;41.70
22098;DHT22;11215;51.938;8.464;2022-08-19T14:24:08;31.00;40.60
22098;DHT22;11215;51.938;8.464;2022-08-19T14:26:36;31.10;40.90
22098;DHT22;11215;51.938;8.464;2022-08-19T14:29:04;31.10;41.00
22098;DHT22;11215;51.938;8.464;2022-08-19T14:31:39;31.10;40.60
22098;DHT22;11215;51.938;8.464;2022-08-19T14:34:14;31.10;40.00
22098;DHT22;11215;51.938;8.464;2022-08-19T14:36:39;31.10;40.70
22098;DHT22;11215;51.938;8.464;2022-08-19T14:39:07;31.00;41.00
22098;DHT22;11215;51.938;8.464;2022-08-19T14:41:34;31.00;40.70
22098;DHT22;11215;51.938;8.464;2022-08-19T14:43:59;31.00;40.60
22098;DHT22;11215;51.938;8.464;2022-08-19T14:49:41;30.80;40.10
22098;DHT22;11215;51.938;8.464;2022-08-19T14:52:12;30.80;40.20
22098;DHT22;11215;51.938;8.464;2022-08-19T14:54:56;30.80;40.40
22098;DHT22;11215;51.938;8.464;2022-08-19T14:57:24;30.70;40.10
22098;DHT22;11215;51.938;8.464;2022-08-19T15:00:05;30.70;40.70
22098;DHT22;11215;51.938;8.464;2022-08-19T15:03:18;30.70;41.00
22098;DHT22;11215;51.938;8.464;2022-08-19T15:05:51;30.70;40.90
22098;DHT22;11215;51.938;8.464;2022-08-19T15:08:21;30.70;41.10
22098;DHT22;11215;51.938;8.464;2022-08-19T15:10:51;30.70;41.30
22098;DHT22;11215;51.938;8.464;2022-08-19T15:13:19;30.80;41.40
22098;DHT22;11215;51.938;8.464;2022-08-19T15:15:52;30.90;40.40
22098;DHT22;11215;51.938;8.464;2022-08-19T15:18:18;31.00;40.80
22098;DHT22;11215;51.938;8.464;2022-08-19T15:20:46;31.10;40.70
22098;DHT22;11215;51.938;8.464;2022-08-19T15:23:16;31.10;40.60
22098;DHT22;11215;51.938;8.464;2022-08-19T15:25:42;31.10;39.90
22098;DHT22;11215;51.938;8.464;2022-08-19T15:28:09;31.20;40.10
22098;DHT22;11215;51.938;8.464;2022-08-19T15:30:39;31.20;39.80
22098;DHT22;11215;51.938;8.464;2022-08-19T15:33:05;31.30;39.70
22098;DHT22;11215;51.938;8.464;2022-08-19T15:35:32;31.30;39.70
22098;DHT22;11215;51.938;8.464;2022-08-19T15:37:58;31.30;39.70
22098;DHT22;11215;51.938;8.464;2022-08-19T15:40:25;31.40;39.40
22098;DHT22;11215;51.938;8.464;2022-08-19T15:42:51;31.40;39.20
22098;DHT22;11215;51.938;8.464;2022-08-19T15:45:19;31.40;39.50